Time;durP1;ratioP1;P1;durP2;ratioP2;P2;SDS_P1;SDS_P2;PMS_P1;PMS_P2;Temp;Humidity;BMP_temperature;BMP_pressure;BME280_temperature;BME280_humidity;BME280_pressure;Samples;Min_cycle;Max_cycle;Signal;HPM_P1;HPM_P2
2022/08/28 00:00:58;;;;;;;;;;;;;;;15.01;100.00;101984.31;2614755;36;19969;-53
2022/08/28 00:03:29;;;;;;;;;;;;;;;14.97;100.00;101982.91;2615150;36;20535;-52
2022/08/28 00:05:57;;;;;;;;;;;;;;;14.94;100.00;101985.00;2615842;36;20347;-49
2022/08/28 00:08:25;;;;;;;;;;;;;;;14.96;100.00;101978.47;2614567;31;20459;-50
2022/08/28 00:10:53;;;;;;;;;;;;;;;14.96;100.00;101981.19;2614550;36;19954;-52
2022/08/28 00:13:24;;;;;;;;;;;;;;;14.92;100.00;101984.31;2614840;36;19989;-53
2022/08/28 00:15:53;;;;;;;;;;;;;;;14.87;100.00;101984.72;2615316;36;19954;-49
2022/08/28 00:18:22;;;;;;;;;;;;;;;14.93;100.00;101984.16;2615710;31;19954;-52
2022/08/28 00:20:53;;;;;;;;;;;;;;;14.99;100.00;101980.06;2614823;36;19951;-49
2022/08/28 00:23:21;;;;;;;;;;;;;;;15.15;100.00;101974.97;2614995;36;20420;-53
2022/08/28 00:25:49;;;;;;;;;;;;;;;14.95;100.00;101984.88;2614562;36;19969;-48
2022/08/28 00:28:16;;;;;;;;;;;;;;;14.94;100.00;101977.72;2614177;36;19962;-49
2022/08/28 00:30:47;;;;;;;;;;;;;;;14.95;100.00;101979.47;2615066;36;19946;-50
2022/08/28 00:33:16;;;;;;;;;;;;;;;14.88;100.00;101978.28;2615175;36;19947;-49
2022/08/28 00:35:45;;;;;;;;;;;;;;;14.87;100.00;101980.16;2615668;31;20442;-51
2022/08/28 00:38:17;;;;;;;;;;;;;;;14.83;100.00;101976.00;2613816;36;19954;-48
2022/08/28 00:40:46;;;;;;;;;;;;;;;14.83;100.00;101973.28;2614781;31;19958;-50
2022/08/28 00:43:23;;;;;;;;;;;;;;;14.83;100.00;101973.28;2614409;36;19951;-48
2022/08/28 00:45:51;;;;;;;;;;;;;;;14.85;100.00;101979.41;2615071;31;19947;-48
2022/08/28 00:48:19;;;;;;;;;;;;;;;14.70;100.00;101976.22;2614494;36;19951;-52
2022/08/28 00:53:31;;;;;;;;;;;;;;;14.53;100.00;101974.09;2613755;36;20042;-51
2022/08/28 00:55:59;;;;;;;;;;;;;;;14.56;100.00;101971.16;2614698;36;19993;-52
2022/08/28 00:58:27;;;;;;;;;;;;;;;14.65;100.00;101981.19;2614165;36;19950;-51
2022/08/28 01:00:56;;;;;;;;;;;;;;;14.68;100.00;101983.63;2615286;36;19975;-49
2022/08/28 01:03:24;;;;;;;;;;;;;;;14.66;100.00;101980.22;2614972;31;20356;-49
2022/08/28 01:05:52;;;;;;;;;;;;;;;14.59;100.00;101984.41;2614463;31;19970;-48
2022/08/28 01:08:20;;;;;;;;;;;;;;;14.53;100.00;101974.09;2614806;36;19954;-52
2022/08/28 01:10:55;;;;;;;;;;;;;;;14.60;100.00;101980.69;2615450;36;20458;-51
2022/08/28 01:13:25;;;;;;;;;;;;;;;14.59;100.00;101972.69;2614903;36;19951;-50
2022/08/28 01:15:54;;;;;;;;;;;;;;;14.73;100.00;101980.50;2614635;36;19972;-52
2022/08/28 01:18:23;;;;;;;;;;;;;;;14.61;100.00;101979.75;2615088;36;19946;-49
2022/08/28 01:20:55;;;;;;;;;;;;;;;14.53;100.00;101979.50;2612382;36;19985;-49
2022/08/28 01:23:30;;;;;;;;;;;;;;;14.51;100.00;101981.50;2611676;36;19954;-48
2022/08/28 01:26:01;;;;;;;;;;;;;;;14.54;100.00;101981.25;2612349;36;19966;-52
2022/08/28 01:28:29;;;;;;;;;;;;;;;14.59;100.00;101976.28;2611677;36;19957;-50
2022/08/28 01:30:57;;;;;;;;;;;;;;;14.51;100.00;101978.81;2612308;31;20398;-50
2022/08/28 01:33:25;;;;;;;;;;;;;;;14.40;100.00;101978.88;2612374;31;20404;-55
2022/08/28 01:35:53;;;;;;;;;;;;;;;14.31;100.00;101973.28;2610455;36;19950;-54
2022/08/28 01:38:21;;;;;;;;;;;;;;;14.37;100.00;101980.03;2611044;36;19985;-52
2022/08/28 01:40:51;;;;;;;;;;;;;;;14.27;100.00;101974.53;2610981;36;20336;-55
2022/08/28 01:43:22;;;;;;;;;;;;;;;14.32;100.00;101974.97;2610874;36;19947;-49
2022/08/28 01:45:52;;;;;;;;;;;;;;;14.30;100.00;101982.41;2610612;36;20024;-53
2022/08/28 01:48:21;;;;;;;;;;;;;;;14.31;100.00;101976.00;2612162;36;19974;-49
2022/08/28 01:50:49;;;;;;;;;;;;;;;14.25;100.00;101987.38;2611046;36;19951;-52
2022/08/28 01:53:19;;;;;;;;;;;;;;;14.19;100.00;101987.88;2611499;36;20344;-53
2022/08/28 01:55:47;;;;;;;;;;;;;;;14.20;100.00;101992.31;2610689;31;19954;-51
2022/08/28 01:58:18;;;;;;;;;;;;;;;14.21;100.00;101985.91;2610781;36;20420;-55
2022/08/28 02:00:48;;;;;;;;;;;;;;;14.29;100.00;101993.34;2611319;36;19958;-52
2022/08/28 02:03:16;;;;;;;;;;;;;;;14.20;100.00;101995.84;2610857;31;19954;-52
2022/08/28 02:05:44;;;;;;;;;;;;;;;14.10;100.00;101989.50;2611809;36;19973;-52
2022/08/28 02:08:13;;;;;;;;;;;;;;;14.01;100.00;101988.44;2615090;36;20349;-53
2022/08/28 02:10:42;;;;;;;;;;;;;;;13.97;100.00;101994.25;2614745;47;19957;-49
2022/08/28 02:13:11;;;;;;;;;;;;;;;13.93;100.00;101988.28;2613345;36;19951;-50
2022/08/28 02:15:40;;;;;;;;;;;;;;;13.91;100.00;101994.78;2614843;31;19951;-52
2022/08/28 02:18:10;;;;;;;;;;;;;;;13.89;100.00;101992.22;2615196;36;19942;-55
2022/08/28 02:20:39;;;;;;;;;;;;;;;13.89;100.00;101997.63;2614771;36;19950;-47
2022/08/28 02:23:07;;;;;;;;;;;;;;;13.83;100.00;101987.31;2615708;36;20329;-50
2022/08/28 02:25:35;;;;;;;;;;;;;;;14.11;100.00;101987.69;2614906;36;20463;-49
2022/08/28 02:28:03;;;;;;;;;;;;;;;14.00;100.00;101997.59;2614964;36;20438;-53
2022/08/28 02:30:34;;;;;;;;;;;;;;;13.89;100.00;102003.03;2614751;31;19973;-48
2022/08/28 02:33:02;;;;;;;;;;;;;;;13.85;100.00;102001.56;2614071;36;20303;-49
2022/08/28 02:35:33;;;;;;;;;;;;;;;13.79;100.00;102007.50;2614029;36;19950;-50
2022/08/28 02:38:03;;;;;;;;;;;;;;;13.73;100.00;102008.03;2615462;36;19977;-49
2022/08/28 02:40:31;;;;;;;;;;;;;;;13.71;100.00;102008.16;2613886;31;19950;-50
2022/08/28 02:42:59;;;;;;;;;;;;;;;13.83;100.00;102009.81;2613327;36;20432;-49
2022/08/28 02:45:27;;;;;;;;;;;;;;;13.76;100.00;102007.78;2615154;36;19939;-51
2022/08/28 02:47:55;;;;;;;;;;;;;;;13.69;100.00;102011.97;2614812;36;19977;-48
2022/08/28 02:50:23;;;;;;;;;;;;;;;13.65;100.00;102008.69;2615361;36;19953;-48
2022/08/28 02:52:57;;;;;;;;;;;;;;;13.58;100.00;102004.78;2615082;36;19970;-51
2022/08/28 02:55:26;;;;;;;;;;;;;;;13.60;100.00;102006.38;2614652;36;19950;-56
2022/08/28 02:57:55;;;;;;;;;;;;;;;13.54;100.00;102001.44;2612708;36;19950;-54
2022/08/28 03:00:24;;;;;;;;;;;;;;;13.49;100.00;102006.38;2612932;36;20440;-52
2022/08/28 03:02:53;;;;;;;;;;;;;;;13.45;100.00;102005.75;2613214;36;19955;-56
2022/08/28 03:05:22;;;;;;;;;;;;;;;13.39;100.00;102011.69;2613904;36;19985;-50
2022/08/28 03:07:52;;;;;;;;;;;;;;;13.33;100.00;102006.75;2615172;31;19985;-53
2022/08/28 03:10:23;;;;;;;;;;;;;;;13.35;100.00;102010.22;2615518;36;19954;-50
2022/08/28 03:12:51;;;;;;;;;;;;;;;13.31;100.00;102009.59;2614859;36;19958;-48
2022/08/28 03:15:20;;;;;;;;;;;;;;;13.25;100.00;102015.50;2613388;36;19950;-50
2022/08/28 03:17:48;;;;;;;;;;;;;;;13.18;100.00;102010.72;2615676;36;20383;-49
2022/08/28 03:20:17;;;;;;;;;;;;;;;13.18;100.00;102013.44;2615342;36;19947;-49
2022/08/28 03:25:37;;;;;;;;;;;;;;;13.17;100.00;102009.84;2614529;36;19943;-54
2022/08/28 03:28:06;;;;;;;;;;;;;;;13.14;100.00;102010.09;2615912;31;19954;-50
2022/08/28 03:30:34;;;;;;;;;;;;;;;13.12;100.00;102017.50;2615292;36;19978;-50
2022/08/28 03:33:02;;;;;;;;;;;;;;;13.07;100.00;102017.88;2615155;36;19957;-54
2022/08/28 03:35:30;;;;;;;;;;;;;;;13.09;100.00;102023.16;2615348;31;19953;-49
2022/08/28 03:37:58;;;;;;;;;;;;;;;13.06;100.00;102026.06;2615624;36;20397;-49
2022/08/28 03:40:26;;;;;;;;;;;;;;;12.97;100.00;102020.44;2614684;36;20423;-49
2022/08/28 03:42:57;;;;;;;;;;;;;;;12.94;100.00;102015.28;2615838;36;20435;-50
2022/08/28 03:45:25;;;;;;;;;;;;;;;12.97;100.00;102020.44;2615658;36;20534;-52
2022/08/28 03:47:53;;;;;;;;;;;;;;;12.92;100.00;102025.34;2615168;36;19951;-49
2022/08/28 03:50:21;;;;;;;;;;;;;;;12.88;100.00;102029.28;2614483;36;19985;-47
2022/08/28 03:52:49;;;;;;;;;;;;;;;12.84;100.00;102025.13;2615482;36;19978;-49
2022/08/28 03:55:18;;;;;;;;;;;;;;;12.88;100.00;102028.41;2614882;36;19951;-52
2022/08/28 03:57:47;;;;;;;;;;;;;;;12.82;100.00;102024.34;2614853;36;19957;-53
2022/08/28 04:00:19;;;;;;;;;;;;;;;12.75;100.00;102031.22;2614715;36;19946;-50
2022/08/28 04:02:47;;;;;;;;;;;;;;;12.74;100.00;102026.81;2615126;36;19958;-50
2022/08/28 04:05:16;;;;;;;;;;;;;;;12.74;100.00;102030.38;2614769;36;19950;-50
2022/08/28 04:07:44;;;;;;;;;;;;;;;12.71;100.00;102033.31;2614366;36;19957;-47
2022/08/28 04:10:15;;;;;;;;;;;;;;;12.64;100.00;102031.22;2615467;36;19970;-53
2022/08/28 04:12:43;;;;;;;;;;;;;;;12.62;100.00;102034.91;2613803;36;19951;-50
2022/08/28 04:15:13;;;;;;;;;;;;;;;12.58;100.00;102040.69;2612424;36;19954;-54
2022/08/28 04:17:44;;;;;;;;;;;;;;;12.55;100.00;102044.47;2612847;36;20065;-54
2022/08/28 04:20:12;;;;;;;;;;;;;;;12.55;100.00;102044.47;2612047;36;19975;-53
2022/08/28 04:22:41;;;;;;;;;;;;;;;12.57;100.00;102047.94;2611936;36;19985;-49
2022/08/28 04:25:09;;;;;;;;;;;;;;;12.54;100.00;102052.69;2612025;36;19959;-51
2022/08/28 04:27:38;;;;;;;;;;;;;;;12.52;100.00;102050.13;2611176;36;19997;-49
2022/08/28 04:30:07;;;;;;;;;;;;;;;12.54;100.00;102050.84;2612648;36;19958;-52
2022/08/28 04:32:35;;;;;;;;;;;;;;;12.51;100.00;102051.06;2611334;36;19947;-51
2022/08/28 04:35:06;;;;;;;;;;;;;;;12.53;100.00;102049.13;2612070;36;20424;-51
2022/08/28 04:37:34;;;;;;;;;;;;;;;12.53;100.00;102051.84;2611231;36;19954;-51
2022/08/28 04:40:03;;;;;;;;;;;;;;;12.43;100.00;102053.53;2612170;36;19994;-52
2022/08/28 04:42:31;;;;;;;;;;;;;;;12.35;100.00;102053.25;2611370;31;19966;-53
2022/08/28 04:44:59;;;;;;;;;;;;;;;12.40;100.00;102057.31;2611855;36;20013;-54
2022/08/28 04:47:27;;;;;;;;;;;;;;;12.41;100.00;102060.88;2611380;36;19974;-51
2022/08/28 04:49:56;;;;;;;;;;;;;;;12.35;100.00;102056.84;2611638;36;20040;-49
2022/08/28 04:52:26;;;;;;;;;;;;;;;12.38;100.00;102063.81;2610957;31;19982;-51
2022/08/28 04:54:54;;;;;;;;;;;;;;;12.35;100.00;102061.34;2611548;36;19977;-49
2022/08/28 04:57:22;;;;;;;;;;;;;;;12.31;100.00;102065.25;2611078;36;19994;-48
2022/08/28 04:59:50;;;;;;;;;;;;;;;12.27;100.00;102065.50;2612813;36;20520;-52
2022/08/28 05:02:18;;;;;;;;;;;;;;;12.25;100.00;102072.03;2611988;36;19950;-54
2022/08/28 05:04:47;;;;;;;;;;;;;;;12.27;100.00;102072.75;2611956;36;20459;-53
2022/08/28 05:07:15;;;;;;;;;;;;;;;12.30;100.00;102072.50;2611444;36;19958;-53
2022/08/28 05:09:45;;;;;;;;;;;;;;;12.32;100.00;102069.69;2611471;36;19970;-51
2022/08/28 05:12:16;;;;;;;;;;;;;;;12.30;100.00;102077.91;2612115;31;19947;-50
2022/08/28 05:14:44;;;;;;;;;;;;;;;12.28;100.00;102079.88;2613910;36;19947;-53
2022/08/28 05:17:13;;;;;;;;;;;;;;;12.26;100.00;102081.81;2612993;31;20010;-52
2022/08/28 05:19:42;;;;;;;;;;;;;;;12.24;100.00;102079.22;2612581;36;19958;-51
2022/08/28 05:22:11;;;;;;;;;;;;;;;12.32;100.00;102080.50;2612280;31;20329;-53
2022/08/28 05:24:39;;;;;;;;;;;;;;;12.38;100.00;102080.91;2611834;36;20424;-49
2022/08/28 05:27:10;;;;;;;;;;;;;;;12.38;100.00;102085.41;2610878;31;20490;-54
2022/08/28 05:29:38;;;;;;;;;;;;;;;12.41;100.00;102085.19;2613754;36;20316;-50
2022/08/28 05:32:06;;;;;;;;;;;;;;;12.42;100.00;102090.47;2610509;36;19950;-54
2022/08/28 05:34:35;;;;;;;;;;;;;;;12.50;100.00;102083.59;2612128;36;20444;-53
2022/08/28 05:37:05;;;;;;;;;;;;;;;12.53;100.00;102092.34;2611303;36;20451;-51
2022/08/28 05:39:33;;;;;;;;;;;;;;;12.58;100.00;102086.59;2611985;36;19998;-49
2022/08/28 05:42:01;;;;;;;;;;;;;;;12.65;100.00;102085.13;2611781;36;20100;-52
2022/08/28 05:44:32;;;;;;;;;;;;;;;12.69;100.00;102085.75;2612916;36;19957;-49
2022/08/28 05:47:00;;;;;;;;;;;;;;;12.78;100.00;102087.75;2614168;36;19954;-50
2022/08/28 05:49:28;;;;;;;;;;;;;;;12.74;100.00;102091.66;2613492;31;20865;-52
2022/08/28 05:51:56;;;;;;;;;;;;;;;12.78;100.00;102090.44;2610434;36;19973;-49
2022/08/28 05:54:24;;;;;;;;;;;;;;;12.82;100.00;102086.50;2609738;36;19985;-50
2022/08/28 05:56:52;;;;;;;;;;;;;;;12.94;100.00;102088.25;2611271;36;19977;-52
2022/08/28 05:59:20;;;;;;;;;;;;;;;13.12;100.00;102085.91;2611624;36;19985;-48
2022/08/28 06:01:51;;;;;;;;;;;;;;;13.31;100.00;102084.44;2611303;36;19954;-50
2022/08/28 06:04:22;;;;;;;;;;;;;;;13.59;100.00;102091.19;2610763;36;19947;-53
2022/08/28 06:06:50;;;;;;;;;;;;;;;14.12;100.00;102100.38;2611387;36;20495;-54
2022/08/28 06:09:20;;;;;;;;;;;;;;;14.59;100.00;102095.50;2610727;36;19968;-54
2022/08/28 06:11:49;;;;;;;;;;;;;;;15.00;100.00;102091.06;2611350;31;20429;-54
2022/08/28 06:14:19;;;;;;;;;;;;;;;15.27;100.00;102091.44;2613924;36;20410;-48
2022/08/28 06:16:48;;;;;;;;;;;;;;;15.65;100.00;102082.59;2612490;36;19957;-53
2022/08/28 06:19:21;;;;;;;;;;;;;;;15.76;100.00;102087.88;2611331;36;20438;-48
2022/08/28 06:21:51;;;;;;;;;;;;;;;15.84;100.00;102086.34;2611249;36;19981;-52
2022/08/28 06:24:19;;;;;;;;;;;;;;;15.85;100.00;102090.78;2610450;36;19946;-48
2022/08/28 06:26:47;;;;;;;;;;;;;;;15.84;100.00;102089.06;2612227;31;19973;-52
2022/08/28 06:29:18;;;;;;;;;;;;;;;15.92;100.00;102091.94;2611162;36;19957;-48
2022/08/28 06:31:46;;;;;;;;;;;;;;;15.88;100.00;102094.06;2611516;36;20037;-50
2022/08/28 06:34:14;;;;;;;;;;;;;;;16.09;100.00;102087.66;2611167;36;19979;-50
2022/08/28 06:36:45;;;;;;;;;;;;;;;16.15;100.00;102095.25;2611425;36;20444;-54
2022/08/28 06:39:14;;;;;;;;;;;;;;;16.24;100.00;102090.84;2611111;31;19981;-51
2022/08/28 06:41:43;;;;;;;;;;;;;;;16.37;100.00;102101.38;2611329;36;20034;-54
2022/08/28 06:44:12;;;;;;;;;;;;;;;16.42;100.00;102089.09;2611166;31;20332;-51
2022/08/28 06:46:40;;;;;;;;;;;;;;;16.54;100.00;102094.38;2611543;36;20089;-49
2022/08/28 06:49:09;;;;;;;;;;;;;;;16.67;100.00;102089.50;2611092;36;19950;-50
2022/08/28 06:51:37;;;;;;;;;;;;;;;16.79;100.00;102091.03;2613439;36;19957;-54
2022/08/28 06:54:08;;;;;;;;;;;;;;;16.95;100.00;102089.59;2613387;36;20353;-52
2022/08/28 06:56:37;;;;;;;;;;;;;;;17.19;100.00;102088.22;2613332;31;19950;-49
2022/08/28 06:59:05;;;;;;;;;;;;;;;17.24;100.00;102091.34;2612835;36;19954;-54
2022/08/28 07:01:34;;;;;;;;;;;;;;;17.31;100.00;102100.63;2612894;36;19945;-48
2022/08/28 07:04:04;;;;;;;;;;;;;;;17.30;100.00;102094.31;2614620;31;19977;-48
2022/08/28 07:06:33;;;;;;;;;;;;;;;17.39;100.00;102095.28;2614413;36;20062;-51
2022/08/28 07:09:01;;;;;;;;;;;;;;;17.59;100.00;102103.34;2613533;36;19946;-54
2022/08/28 07:11:33;;;;;;;;;;;;;;;17.51;100.00;102102.22;2614923;36;19950;-50
2022/08/28 07:14:01;;;;;;;;;;;;;;;17.73;100.00;102105.56;2614552;31;19946;-51
2022/08/28 07:16:31;;;;;;;;;;;;;;;17.86;100.00;102099.75;2613968;36;19977;-50
2022/08/28 07:19:02;;;;;;;;;;;;;;;17.76;100.00;102104.41;2613252;36;20344;-52
2022/08/28 07:21:30;;;;;;;;;;;;;;;18.10;100.00;102106.50;2613848;36;20441;-51
2022/08/28 07:23:58;;;;;;;;;;;;;;;18.18;100.00;102104.69;2612779;36;19953;-48
2022/08/28 07:26:26;;;;;;;;;;;;;;;18.20;100.00;102110.84;2614187;36;19981;-51
2022/08/28 07:28:57;;;;;;;;;;;;;;;18.16;100.00;102112.16;2613420;36;19969;-49
2022/08/28 07:31:27;;;;;;;;;;;;;;;18.14;100.00;102116.91;2615199;36;19957;-49
2022/08/28 07:33:56;;;;;;;;;;;;;;;18.11;100.00;102113.63;2615235;36;19951;-51
2022/08/28 07:36:26;;;;;;;;;;;;;;;18.28;100.00;102120.09;2613029;36;19959;-47
2022/08/28 07:38:54;;;;;;;;;;;;;;;18.36;100.00;102117.47;2614100;36;19991;-49
2022/08/28 07:41:23;;;;;;;;;;;;;;;18.57;100.00;102114.41;2614868;36;19994;-48
2022/08/28 07:46:36;;;;;;;;;;;;;;;18.56;100.00;102119.00;2614888;36;20034;-51
2022/08/28 07:49:04;;;;;;;;;;;;;;;18.74;100.00;102112.63;2612016;36;19954;-50
2022/08/28 07:51:32;;;;;;;;;;;;;;;18.84;100.00;102121.56;2612315;36;20455;-49
2022/08/28 07:54:01;;;;;;;;;;;;;;;18.58;100.00;102120.69;2611190;36;20470;-49
2022/08/28 07:56:30;;;;;;;;;;;;;;;18.56;100.00;102124.47;2611370;36;19951;-48
2022/08/28 07:58:58;;;;;;;;;;;;;;;18.60;100.00;102129.59;2611424;36;19958;-54
2022/08/28 08:01:27;;;;;;;;;;;;;;;18.98;100.00;102122.91;2613226;36;19951;-52
2022/08/28 08:03:58;;;;;;;;;;;;;;;19.25;100.00;102118.28;2614056;36;19957;-49
2022/08/28 08:06:30;;;;;;;;;;;;;;;19.18;100.00;102118.06;2610270;36;19953;-51
2022/08/28 08:08:58;;;;;;;;;;;;;;;18.84;100.00;102127.03;2607573;36;20360;-50
2022/08/28 08:11:26;;;;;;;;;;;;;;;18.84;100.00;102127.03;2609926;36;20562;-49
2022/08/28 08:13:55;;;;;;;;;;;;;;;19.18;100.00;102128.97;2608099;36;20453;-49
2022/08/28 08:16:24;;;;;;;;;;;;;;;19.41;100.00;102123.81;2611722;36;19950;-52
2022/08/28 08:18:53;;;;;;;;;;;;;;;19.42;100.00;102124.69;2610577;36;19970;-49
2022/08/28 08:21:24;;;;;;;;;;;;;;;19.56;100.00;102126.75;2613100;36;19950;-52
2022/08/28 08:23:52;;;;;;;;;;;;;;;19.69;100.00;102125.47;2613164;36;19957;-50
2022/08/28 08:26:22;;;;;;;;;;;;;;;19.92;100.00;102129.31;2614914;36;20074;-54
2022/08/28 08:28:52;;;;;;;;;;;;;;;20.11;100.00;102140.97;2612971;31;19946;-49
2022/08/28 08:31:22;;;;;;;;;;;;;;;20.30;100.00;102143.41;2615035;36;19953;-51
2022/08/28 08:33:51;;;;;;;;;;;;;;;20.13;100.00;102134.31;2614904;36;20455;-49
2022/08/28 08:36:21;;;;;;;;;;;;;;;19.63;100.00;102121.50;2613594;31;20352;-48
2022/08/28 08:38:52;;;;;;;;;;;;;;;20.17;100.00;102129.38;2613712;36;19950;-48
2022/08/28 08:41:24;;;;;;;;;;;;;;;20.52;100.00;102135.53;2613762;36;19954;-48
2022/08/28 08:43:55;;;;;;;;;;;;;;;20.62;100.00;102138.09;2615591;31;20443;-48
2022/08/28 08:46:27;;;;;;;;;;;;;;;20.56;100.00;102138.78;2614019;31;20363;-50
2022/08/28 08:48:56;;;;;;;;;;;;;;;20.51;100.00;102136.56;2614407;36;19955;-52
2022/08/28 08:51:29;;;;;;;;;;;;;;;20.33;100.00;102139.44;2614709;36;20328;-48
2022/08/28 08:54:05;;;;;;;;;;;;;;;20.25;100.00;102131.25;2614180;36;20440;-52
2022/08/28 08:56:33;;;;;;;;;;;;;;;20.17;100.00;102129.38;2614129;36;19973;-49
2022/08/28 08:59:04;;;;;;;;;;;;;;;19.99;100.00;102131.38;2614563;36;20425;-53
2022/08/28 09:01:34;;;;;;;;;;;;;;;20.00;100.00;102123.00;2614771;36;19985;-52
2022/08/28 09:04:05;;;;;;;;;;;;;;;20.23;100.00;102125.97;2614589;36;19950;-50
2022/08/28 09:06:37;;;;;;;;;;;;;;;20.37;100.00;102129.88;2615538;36;19954;-51
2022/08/28 09:09:13;;;;;;;;;;;;;;;20.51;100.00;102139.31;2613900;36;20000;-53
2022/08/28 09:11:46;;;;;;;;;;;;;;;20.79;100.00;102134.38;2615147;31;19973;-52
2022/08/28 09:14:20;;;;;;;;;;;;;;;21.26;100.00;102129.13;2613551;36;19951;-49
2022/08/28 09:16:49;;;;;;;;;;;;;;;21.22;100.00;102128.63;2613794;36;19950;-57
2022/08/28 09:19:19;;;;;;;;;;;;;;;21.57;100.00;102129.22;2613711;36;20074;-53
2022/08/28 09:21:48;;;;;;;;;;;;;;;21.66;100.00;102128.16;2614812;36;19950;-51
2022/08/28 09:24:22;;;;;;;;;;;;;;;21.39;100.00;102132.16;2613773;36;20322;-53
2022/08/28 09:26:58;;;;;;;;;;;;;;;21.37;100.00;102130.66;2615243;36;19954;-51
2022/08/28 09:29:28;;;;;;;;;;;;;;;21.39;100.00;102136.78;2614326;36;19946;-56
2022/08/28 09:31:56;;;;;;;;;;;;;;;21.27;100.00;102123.47;2614574;36;19947;-52
2022/08/28 09:34:27;;;;;;;;;;;;;;;21.39;100.00;102131.31;2615149;31;20360;-49
2022/08/28 09:36:56;;;;;;;;;;;;;;;21.80;100.00;102115.56;2614885;36;19958;-51
2022/08/28 09:39:27;;;;;;;;;;;;;;;22.10;100.00;102125.81;2613681;36;19957;-52
2022/08/28 09:44:56;;;;;;;;;;;;;;;22.09;100.00;102121.41;2614658;31;19953;-50
2022/08/28 09:47:38;;;;;;;;;;;;;;;22.55;100.00;102126.88;2615029;36;19946;-51
2022/08/28 09:50:21;;;;;;;;;;;;;;;22.55;100.00;102124.97;2614164;36;20438;-53
2022/08/28 09:52:50;;;;;;;;;;;;;;;22.23;100.00;102124.19;2615077;31;19981;-51
2022/08/28 09:55:25;;;;;;;;;;;;;;;22.11;100.00;102130.28;2611427;36;19985;-52
2022/08/28 09:57:54;;;;;;;;;;;;;;;21.86;100.00;102122.22;2614438;36;19974;-52
2022/08/28 10:00:22;;;;;;;;;;;;;;;22.57;100.00;102133.06;2615213;34;20319;-53
2022/08/28 10:02:54;;;;;;;;;;;;;;;22.16;100.00;102116.91;2615024;36;19977;-49
2022/08/28 10:05:30;;;;;;;;;;;;;;;22.75;100.00;102124.50;2613649;36;19954;-50
2022/08/28 10:08:03;;;;;;;;;;;;;;;21.56;100.00;102127.50;2611826;31;20442;-53
2022/08/28 10:10:38;;;;;;;;;;;;;;;21.14;100.00;102129.50;2613450;36;19947;-52
2022/08/28 10:13:11;;;;;;;;;;;;;;;21.63;100.00;102120.28;2610264;36;19954;-53
2022/08/28 10:15:45;;;;;;;;;;;;;;;21.89;100.00;102119.09;2613006;36;19950;-49
2022/08/28 10:18:28;;;;;;;;;;;;;;;22.04;100.00;102131.00;2610805;36;20447;-51
2022/08/28 10:21:02;;;;;;;;;;;;;;;21.98;100.00;102120.78;2612896;31;20443;-52
2022/08/28 10:23:35;;;;;;;;;;;;;;;22.72;100.00;102114.72;2612877;36;20451;-50
2022/08/28 10:26:15;;;;;;;;;;;;;;;22.72;99.15;102125.69;2613045;31;19950;-50
2022/08/28 10:28:47;;;;;;;;;;;;;;;22.74;93.66;102136.50;2613940;36;20459;-53
2022/08/28 10:31:20;;;;;;;;;;;;;;;22.44;100.00;102121.81;2614482;31;19954;-55
2022/08/28 10:34:01;;;;;;;;;;;;;;;22.57;99.51;102117.44;2614232;36;20371;-50
2022/08/28 10:36:31;;;;;;;;;;;;;;;22.85;88.97;102126.94;2613930;36;19950;-55
2022/08/28 10:39:04;;;;;;;;;;;;;;;22.75;91.80;102122.59;2614064;31;20317;-57
2022/08/28 10:41:38;;;;;;;;;;;;;;;23.30;91.82;102114.13;2612325;31;20026;-49
2022/08/28 10:44:07;;;;;;;;;;;;;;;23.78;81.52;102122.78;2612701;36;20388;-51
2022/08/28 10:46:37;;;;;;;;;;;;;;;24.12;80.18;102118.53;2614964;36;20371;-52
2022/08/28 10:49:08;;;;;;;;;;;;;;;23.05;86.03;102124.50;2612654;36;19957;-56
2022/08/28 10:51:39;;;;;;;;;;;;;;;22.87;89.44;102135.88;2612199;36;19946;-55
2022/08/28 10:54:09;;;;;;;;;;;;;;;23.67;95.32;102128.78;2612179;36;20042;-55
2022/08/28 10:56:42;;;;;;;;;;;;;;;24.09;91.61;102121.69;2613346;36;20420;-54
2022/08/28 10:59:11;;;;;;;;;;;;;;;23.62;83.20;102126.59;2612761;31;19939;-54
2022/08/28 11:01:50;;;;;;;;;;;;;;;23.35;86.44;102125.41;2614015;36;19977;-55
2022/08/28 11:04:23;;;;;;;;;;;;;;;22.89;92.10;102133.78;2613862;31;20325;-52
2022/08/28 11:06:53;;;;;;;;;;;;;;;23.96;79.07;102122.38;2614901;36;19989;-57
2022/08/28 11:09:30;;;;;;;;;;;;;;;24.14;79.42;102121.97;2614307;36;19969;-51
2022/08/28 11:12:02;;;;;;;;;;;;;;;23.22;90.42;102133.47;2600718;31;19953;-55
2022/08/28 11:14:33;;;;;;;;;;;;;;;23.11;95.58;102133.94;2613153;36;20455;-56
2022/08/28 11:17:02;;;;;;;;;;;;;;;22.32;100.00;102137.88;2613970;36;19954;-52
2022/08/28 11:19:47;;;;;;;;;;;;;;;22.02;100.00;102135.81;2613336;36;20327;-52
2022/08/28 11:22:18;;;;;;;;;;;;;;;22.71;100.00;102126.72;2612008;36;19951;-51
2022/08/28 11:24:50;;;;;;;;;;;;;;;23.11;100.00;102122.94;2609977;36;19961;-50
2022/08/28 11:27:25;;;;;;;;;;;;;;;23.38;85.88;102124.16;2605582;36;19950;-57
2022/08/28 11:30:01;;;;;;;;;;;;;;;23.40;82.04;102122.94;2614687;36;19958;-48
2022/08/28 11:32:38;;;;;;;;;;;;;;;23.97;80.38;102128.75;2613308;31;19951;-50
2022/08/28 11:35:08;;;;;;;;;;;;;;;23.66;73.84;102129.84;2610970;36;20486;-50
2022/08/28 11:37:38;;;;;;;;;;;;;;;23.36;80.72;102129.00;2611623;36;19973;-55
2022/08/28 11:40:18;;;;;;;;;;;;;;;23.61;89.59;102121.31;2613385;36;19950;-50
2022/08/28 11:42:49;;;;;;;;;;;;;;;23.52;81.95;102128.78;2613436;36;19951;-49
2022/08/28 11:45:21;;;;;;;;;;;;;;;23.37;75.30;102134.31;2611147;36;19950;-52
2022/08/28 11:47:55;;;;;;;;;;;;;;;23.56;78.87;102134.78;2614629;36;20002;-51
2022/08/28 11:50:33;;;;;;;;;;;;;;;24.27;84.97;102131.38;2611055;31;20476;-53
2022/08/28 11:53:21;;;;;;;;;;;;;;;24.27;71.23;102123.13;2613182;36;19946;-55
2022/08/28 11:56:04;;;;;;;;;;;;;;;24.06;71.54;102122.06;2615119;36;19959;-52
2022/08/28 11:58:38;;;;;;;;;;;;;;;23.70;76.36;102125.63;2614188;31;19973;-57
2022/08/28 12:01:08;;;;;;;;;;;;;;;23.77;88.37;102118.31;2616003;36;20371;-56
2022/08/28 12:03:39;;;;;;;;;;;;;;;23.31;86.79;102118.59;2615055;36;19958;-56
2022/08/28 12:06:09;;;;;;;;;;;;;;;23.00;92.26;102124.25;2615044;36;20301;-52
2022/08/28 12:08:53;;;;;;;;;;;;;;;23.15;90.87;102116.03;2615632;36;19951;-50
2022/08/28 12:11:36;;;;;;;;;;;;;;;23.57;79.08;102117.22;2614885;36;19950;-53
2022/08/28 12:14:07;;;;;;;;;;;;;;;22.87;81.96;102136.72;2615015;31;19954;-55
2022/08/28 12:17:06;;;;;;;;;;;;;;;23.48;79.80;102132.13;2615856;31;19981;-57
2022/08/28 12:19:39;;;;;;;;;;;;;;;23.61;68.76;102118.56;2614917;36;19981;-51
2022/08/28 12:22:08;;;;;;;;;;;;;;;24.16;73.94;102118.13;2614049;36;19967;-56
2022/08/28 12:24:37;;;;;;;;;;;;;;;24.57;61.73;102122.97;2614771;36;19954;-55
2022/08/28 12:27:05;;;;;;;;;;;;;;;24.33;64.81;102111.31;2614499;31;19946;-53
2022/08/28 12:29:34;;;;;;;;;;;;;;;24.19;69.84;102115.00;2614693;36;19977;-53
2022/08/28 12:32:15;;;;;;;;;;;;;;;24.34;65.09;102118.53;2615781;36;20381;-53
2022/08/28 12:34:51;;;;;;;;;;;;;;;24.25;68.89;102120.56;2615341;36;19958;-53
2022/08/28 12:37:32;;;;;;;;;;;;;;;24.33;62.02;102116.81;2614582;36;19950;-52
2022/08/28 12:40:06;;;;;;;;;;;;;;;24.92;67.08;102120.31;2614581;36;19979;-53
2022/08/28 12:42:37;;;;;;;;;;;;;;;24.76;66.50;102118.69;2614196;36;19981;-53
2022/08/28 12:45:07;;;;;;;;;;;;;;;24.98;61.98;102116.75;2614853;36;19957;-56
2022/08/28 12:47:39;;;;;;;;;;;;;;;24.56;66.27;102122.13;2615712;36;19955;-51
2022/08/28 12:50:26;;;;;;;;;;;;;;;24.13;64.45;102125.75;2614149;36;19947;-51
2022/08/28 12:52:55;;;;;;;;;;;;;;;23.92;75.03;102131.22;2614118;36;20318;-55
2022/08/28 12:55:24;;;;;;;;;;;;;;;23.41;93.34;102124.66;2614151;36;20440;-49